createdAt,value
2019-01-13T00:00:23.980Z,1.30
2019-01-13T00:02:50.792Z,1.30
2019-01-13T00:05:17.608Z,1.30
2019-01-13T00:07:44.380Z,1.30
2019-01-13T00:10:11.201Z,1.30
2019-01-13T00:12:37.980Z,1.30
2019-01-13T00:15:07.300Z,1.30
2019-01-13T00:17:34.072Z,1.30
2019-01-13T00:20:00.889Z,1.30
2019-01-13T00:22:27.773Z,1.30
2019-01-13T00:24:54.584Z,1.40
2019-01-13T00:27:21.352Z,1.40
2019-01-13T00:29:48.206Z,1.40
2019-01-13T00:32:14.985Z,1.40
2019-01-13T00:34:41.791Z,1.30
2019-01-13T00:37:08.568Z,1.40
2019-01-13T00:39:35.385Z,1.40
2019-01-13T00:42:02.164Z,1.30
2019-01-13T00:44:28.972Z,1.30
2019-01-13T00:46:55.752Z,1.30
2019-01-13T00:49:22.568Z,1.30
2019-01-13T00:51:49.382Z,1.30
2019-01-13T00:54:16.160Z,1.30
2019-01-13T00:56:42.972Z,1.30
2019-01-13T00:59:09.848Z,1.30
2019-01-13T01:01:36.665Z,1.30
2019-01-13T01:04:03.740Z,1.30
2019-01-13T01:06:30.564Z,1.20
2019-01-13T01:08:57.341Z,1.30
2019-01-13T01:11:24.261Z,1.30
2019-01-13T01:13:51.040Z,1.30
2019-01-13T01:16:17.824Z,1.30
2019-01-13T01:18:44.639Z,1.40
2019-01-13T01:21:11.412Z,1.30
2019-01-13T01:23:38.261Z,1.30
2019-01-13T01:26:05.140Z,1.30
2019-01-13T01:28:31.948Z,1.30
2019-01-13T01:30:58.715Z,1.40
2019-01-13T01:33:26.035Z,1.30
2019-01-13T01:35:53.108Z,1.30
2019-01-13T01:38:20.224Z,1.40
2019-01-13T01:40:46.995Z,1.50
2019-01-13T01:43:13.807Z,1.50
2019-01-13T01:45:40.580Z,1.50
2019-01-13T01:48:07.391Z,1.50
2019-01-13T01:50:34.205Z,1.50
2019-01-13T01:53:01.954Z,1.50
2019-01-13T01:55:28.905Z,1.50
2019-01-13T01:57:55.680Z,1.50
2019-01-13T02:00:23.493Z,1.50
2019-01-13T02:02:50.273Z,1.50
2019-01-13T02:05:17.991Z,1.50
2019-01-13T02:07:44.852Z,1.60
2019-01-13T02:10:16.860Z,1.60
2019-01-13T02:12:43.639Z,1.50
2019-01-13T02:15:13.666Z,1.50
2019-01-13T02:17:40.428Z,1.50
2019-01-13T02:20:13.020Z,1.50
2019-01-13T02:22:39.795Z,1.40
2019-01-13T02:25:09.689Z,1.40
2019-01-13T02:27:36.511Z,1.40
2019-01-13T02:30:06.913Z,1.50
2019-01-13T02:32:33.688Z,1.50
2019-01-13T02:35:00.504Z,1.50
2019-01-13T02:37:27.278Z,1.50
2019-01-13T02:39:54.137Z,1.50
2019-01-13T02:42:20.873Z,1.50
2019-01-13T02:44:47.687Z,1.50
2019-01-13T02:47:14.496Z,1.50
2019-01-13T02:49:41.280Z,1.50
2019-01-13T02:52:08.090Z,1.50
2019-01-13T02:54:34.864Z,1.40
2019-01-13T02:57:01.679Z,1.40
2019-01-13T02:59:28.456Z,1.40
2019-01-13T03:01:55.313Z,1.50
2019-01-13T03:04:22.092Z,1.40
2019-01-13T03:06:48.902Z,1.40
2019-01-13T03:09:15.680Z,1.50
2019-01-13T03:11:42.493Z,1.50
2019-01-13T03:14:09.259Z,1.50
2019-01-13T03:16:36.080Z,1.60
2019-01-13T03:19:02.964Z,1.60
2019-01-13T03:21:29.780Z,1.60
2019-01-13T03:23:56.557Z,1.60
2019-01-13T03:26:23.368Z,1.60
2019-01-13T03:28:50.180Z,1.60
2019-01-13T03:31:16.999Z,1.60
2019-01-13T03:33:43.768Z,1.60
2019-01-13T03:36:10.580Z,1.60
2019-01-13T03:38:37.359Z,1.60
2019-01-13T03:41:04.268Z,1.60
2019-01-13T03:43:31.045Z,1.70
2019-01-13T03:45:57.852Z,1.60
2019-01-13T03:48:24.632Z,1.60
2019-01-13T03:50:51.444Z,1.50
2019-01-13T03:53:18.215Z,1.40
2019-01-13T03:55:44.987Z,1.30
2019-01-13T03:58:11.799Z,1.20
2019-01-13T04:00:38.567Z,1.20
2019-01-13T04:03:05.384Z,1.10
2019-01-13T04:05:32.160Z,1.10
2019-01-13T04:07:58.976Z,1.10
2019-01-13T04:10:25.745Z,1.10
2019-01-13T04:12:52.561Z,1.10
2019-01-13T04:15:31.715Z,1.10
2019-01-13T04:17:59.434Z,1.00
2019-01-13T04:20:26.208Z,1.00
2019-01-13T04:22:53.015Z,1.00
2019-01-13T04:25:19.798Z,1.00
2019-01-13T04:27:46.612Z,1.00
2019-01-13T04:30:13.431Z,1.00
2019-01-13T04:32:40.237Z,0.90
2019-01-13T04:35:07.317Z,1.00
2019-01-13T04:37:34.123Z,1.00
2019-01-13T04:40:00.941Z,1.10
2019-01-13T04:42:27.721Z,1.20
2019-01-13T04:44:54.540Z,1.30
2019-01-13T04:47:21.306Z,1.40
2019-01-13T04:49:48.115Z,1.50
2019-01-13T04:52:14.897Z,1.50
2019-01-13T04:54:41.704Z,1.50
2019-01-13T04:57:08.981Z,1.50
2019-01-13T04:59:35.792Z,1.60
2019-01-13T05:02:02.675Z,1.60
2019-01-13T05:04:29.477Z,1.60
2019-01-13T05:06:56.287Z,1.60
2019-01-13T05:09:23.064Z,1.60
2019-01-13T05:11:49.881Z,1.60
2019-01-13T05:14:16.701Z,1.60
2019-01-13T05:16:43.465Z,1.60
2019-01-13T05:19:12.180Z,1.70
2019-01-13T05:21:38.992Z,1.60
2019-01-13T05:24:05.764Z,1.60
2019-01-13T05:26:32.575Z,1.70
2019-01-13T05:28:59.428Z,1.60
2019-01-13T05:31:26.203Z,1.60
2019-01-13T05:33:53.008Z,1.60
2019-01-13T05:36:19.821Z,1.70
2019-01-13T05:38:46.623Z,1.70
2019-01-13T05:41:13.410Z,1.70
2019-01-13T05:43:40.216Z,1.70
2019-01-13T05:46:07.000Z,1.70
2019-01-13T05:48:33.800Z,1.80
2019-01-13T05:51:00.579Z,1.80
2019-01-13T05:53:27.389Z,1.80
2019-01-13T05:55:54.158Z,1.80
2019-01-13T05:58:20.972Z,1.90
2019-01-13T06:00:47.847Z,1.90
2019-01-13T06:03:14.665Z,1.90
2019-01-13T06:05:41.450Z,1.90
2019-01-13T06:08:08.252Z,1.90
2019-01-13T06:10:35.125Z,1.90
2019-01-13T06:13:01.932Z,1.90
2019-01-13T06:15:28.707Z,1.90
2019-01-13T06:17:55.615Z,1.90
2019-01-13T06:20:22.698Z,1.90
2019-01-13T06:22:49.913Z,1.90
2019-01-13T06:25:16.691Z,1.90
2019-01-13T06:27:43.499Z,1.90
2019-01-13T06:30:15.891Z,1.90
2019-01-13T06:32:42.696Z,1.90
2019-01-13T06:35:09.804Z,1.90
2019-01-13T06:37:36.576Z,2.00
2019-01-13T06:40:06.696Z,2.00
2019-01-13T06:42:33.499Z,2.00
2019-01-13T06:45:00.276Z,2.00
2019-01-13T06:47:27.082Z,2.10
2019-01-13T06:49:53.904Z,2.10
2019-01-13T06:52:20.675Z,2.00
2019-01-13T06:54:47.489Z,2.00
2019-01-13T06:57:14.291Z,1.90
2019-01-13T06:59:41.063Z,1.80
2019-01-13T07:02:07.875Z,2.00
2019-01-13T07:04:34.753Z,2.00
2019-01-13T07:07:03.200Z,1.90
2019-01-13T07:09:29.976Z,1.90
2019-01-13T07:11:56.797Z,1.90
2019-01-13T07:14:23.581Z,1.90
2019-01-13T07:16:50.388Z,1.90
2019-01-13T07:19:17.169Z,2.00
2019-01-13T07:21:43.985Z,2.00
2019-01-13T07:24:11.164Z,2.00
2019-01-13T07:26:37.976Z,2.00
2019-01-13T07:29:04.760Z,2.00
2019-01-13T07:31:31.628Z,1.90
2019-01-13T07:33:58.439Z,1.90
2019-01-13T07:36:25.221Z,1.90
2019-01-13T07:38:52.034Z,1.90
2019-01-13T07:41:18.848Z,1.90
2019-01-13T07:43:45.625Z,1.90
2019-01-13T07:46:12.437Z,2.00
2019-01-13T07:48:39.247Z,2.00
2019-01-13T07:51:06.025Z,2.00
2019-01-13T07:53:32.842Z,2.00
2019-01-13T07:55:59.659Z,2.10
2019-01-13T07:58:26.424Z,2.10
2019-01-13T08:00:53.287Z,2.10
2019-01-13T08:03:20.096Z,2.10
2019-01-13T08:05:46.878Z,2.10
2019-01-13T08:08:13.696Z,2.20
2019-01-13T08:10:40.524Z,2.30
2019-01-13T08:13:07.305Z,2.30
2019-01-13T08:15:34.116Z,2.30
2019-01-13T08:18:00.929Z,2.30
2019-01-13T08:20:29.013Z,2.30
2019-01-13T08:22:55.824Z,2.30
2019-01-13T08:25:22.646Z,2.30
2019-01-13T08:27:49.420Z,2.30
2019-01-13T08:30:18.028Z,2.30
2019-01-13T08:32:44.888Z,2.40
2019-01-13T08:35:11.802Z,2.40
2019-01-13T08:37:39.273Z,2.40
2019-01-13T08:40:09.684Z,2.40
2019-01-13T08:42:36.460Z,2.40
2019-01-13T08:45:06.380Z,2.40
2019-01-13T08:47:33.192Z,2.40
2019-01-13T08:50:00.026Z,2.50
2019-01-13T08:52:26.840Z,2.50
2019-01-13T08:54:53.659Z,2.50
2019-01-13T08:57:20.452Z,2.60
2019-01-13T08:59:47.273Z,2.60
2019-01-13T09:02:14.049Z,2.60
2019-01-13T09:04:40.869Z,2.70
2019-01-13T09:07:07.677Z,2.70
2019-01-13T09:09:34.462Z,2.80
2019-01-13T09:12:01.276Z,2.80
2019-01-13T09:14:28.084Z,2.80
2019-01-13T09:16:54.864Z,2.80
2019-01-13T09:19:21.680Z,2.80
2019-01-13T09:21:48.501Z,2.80
2019-01-13T09:24:15.280Z,2.80
2019-01-13T09:26:42.091Z,2.90
2019-01-13T09:29:08.907Z,2.80
2019-01-13T09:31:35.687Z,2.70
2019-01-13T09:34:02.643Z,2.80
2019-01-13T09:36:29.467Z,2.80
2019-01-13T09:38:56.264Z,2.80
2019-01-13T09:41:25.002Z,2.80
2019-01-13T09:43:51.820Z,2.80
2019-01-13T09:46:18.598Z,2.90
2019-01-13T09:48:46.323Z,2.90
2019-01-13T09:51:13.231Z,2.90
2019-01-13T09:53:39.996Z,2.90
2019-01-13T09:56:06.808Z,2.90
2019-01-13T09:58:33.629Z,2.80
2019-01-13T10:01:00.417Z,2.90
2019-01-13T10:03:27.233Z,2.90
2019-01-13T10:05:54.044Z,2.90
2019-01-13T10:08:20.821Z,3.00
2019-01-13T10:10:47.641Z,3.00
2019-01-13T10:13:14.452Z,3.10
2019-01-13T10:15:41.224Z,3.10
2019-01-13T10:18:09.953Z,3.20
2019-01-13T10:20:36.777Z,3.20
2019-01-13T10:23:03.563Z,3.20
2019-01-13T10:25:30.381Z,3.20
2019-01-13T10:27:57.220Z,3.10
2019-01-13T10:30:28.456Z,3.10
2019-01-13T10:32:55.312Z,3.10
2019-01-13T10:35:22.428Z,3.10
2019-01-13T10:37:49.311Z,3.20
2019-01-13T10:40:18.428Z,3.20
2019-01-13T10:42:45.572Z,3.20
2019-01-13T10:45:14.248Z,3.20
2019-01-13T10:47:41.066Z,3.10
2019-01-13T10:50:11.392Z,3.20
2019-01-13T10:52:39.081Z,3.10
2019-01-13T10:55:06.898Z,3.10
2019-01-13T10:57:33.720Z,3.10
2019-01-13T11:00:00.500Z,3.00
2019-01-13T11:02:27.323Z,2.90
2019-01-13T11:04:54.144Z,2.80
2019-01-13T11:07:20.932Z,2.90
2019-01-13T11:09:47.740Z,2.90
2019-01-13T11:12:14.560Z,2.90
2019-01-13T11:14:41.550Z,2.80
2019-01-13T11:17:08.369Z,2.80
2019-01-13T11:19:35.184Z,2.70
2019-01-13T11:22:01.960Z,2.80
2019-01-13T11:24:29.377Z,2.80
2019-01-13T11:26:56.478Z,2.80
2019-01-13T11:29:24.002Z,2.80
2019-01-13T11:31:51.710Z,2.70
2019-01-13T11:34:25.714Z,2.80
2019-01-13T11:36:53.275Z,2.60
2019-01-13T11:39:20.811Z,2.70
2019-01-13T11:41:48.435Z,2.70
2019-01-13T11:44:17.706Z,2.60
2019-01-13T11:46:46.745Z,2.70
2019-01-13T11:49:14.981Z,2.70
2019-01-13T11:51:42.442Z,2.60
2019-01-13T11:54:10.271Z,2.60
2019-01-13T11:56:39.833Z,2.60
2019-01-13T11:59:09.852Z,2.50
2019-01-13T12:01:37.326Z,2.50
2019-01-13T12:04:04.192Z,2.50
2019-01-13T12:06:31.030Z,2.40
2019-01-13T12:08:57.827Z,2.40
2019-01-13T12:11:24.673Z,2.30
2019-01-13T12:13:51.460Z,2.30
2019-01-13T12:16:18.298Z,2.30
2019-01-13T12:18:45.084Z,2.30
2019-01-13T12:21:11.907Z,2.20
2019-01-13T12:23:38.806Z,2.20
2019-01-13T12:26:05.628Z,2.20
2019-01-13T12:28:32.412Z,2.20
2019-01-13T12:30:59.304Z,2.30
2019-01-13T12:33:26.098Z,2.20
2019-01-13T12:35:52.921Z,2.30
2019-01-13T12:38:19.715Z,2.30
2019-01-13T12:40:46.524Z,2.30
2019-01-13T12:43:13.320Z,2.20
2019-01-13T12:45:40.150Z,2.20
2019-01-13T12:48:06.937Z,2.20
2019-01-13T12:50:33.880Z,2.30
2019-01-13T12:53:00.778Z,2.30
2019-01-13T12:55:27.604Z,2.20
2019-01-13T12:57:54.633Z,2.20
2019-01-13T13:00:21.738Z,2.20
2019-01-13T13:02:48.717Z,2.10
2019-01-13T13:05:18.275Z,2.20
2019-01-13T13:07:45.778Z,2.20
2019-01-13T13:10:24.916Z,2.20
2019-01-13T13:12:51.739Z,2.20
2019-01-13T13:15:18.556Z,2.20
2019-01-13T13:17:45.327Z,2.10
2019-01-13T13:20:14.192Z,2.10
2019-01-13T13:22:41.171Z,2.10
2019-01-13T13:25:10.083Z,2.10
2019-01-13T13:27:37.153Z,2.10
2019-01-13T13:30:18.917Z,2.10
2019-01-13T13:32:45.766Z,2.10
2019-01-13T13:35:12.541Z,2.10
2019-01-13T13:37:39.539Z,2.10
2019-01-13T13:40:09.852Z,2.10
2019-01-13T13:42:36.900Z,2.10
2019-01-13T13:45:05.529Z,2.00
2019-01-13T13:47:32.388Z,2.00
2019-01-13T13:49:59.168Z,2.00
2019-01-13T13:52:25.978Z,2.10
2019-01-13T13:54:52.752Z,2.00
2019-01-13T13:57:19.567Z,2.00
2019-01-13T13:59:46.356Z,2.00
2019-01-13T14:02:13.195Z,2.00
2019-01-13T14:04:39.959Z,2.00
2019-01-13T14:07:06.769Z,1.90
2019-01-13T14:09:33.536Z,1.90
2019-01-13T14:12:00.484Z,1.90
2019-01-13T14:14:27.264Z,1.90
2019-01-13T14:16:54.072Z,1.90
2019-01-13T14:19:20.848Z,1.90
2019-01-13T14:21:47.779Z,1.90
2019-01-13T14:24:14.560Z,1.90
2019-01-13T14:26:41.376Z,2.00
2019-01-13T14:29:08.164Z,2.00
2019-01-13T14:31:34.979Z,2.00
2019-01-13T14:34:01.801Z,2.10
2019-01-13T14:36:28.604Z,2.10
2019-01-13T14:38:55.376Z,2.10
2019-01-13T14:41:22.733Z,2.20
2019-01-13T14:43:49.540Z,2.20
2019-01-13T14:46:16.321Z,2.20
2019-01-13T14:48:44.934Z,2.30
2019-01-13T14:51:14.802Z,2.30
2019-01-13T14:53:41.568Z,2.40
2019-01-13T14:56:08.350Z,2.40
2019-01-13T14:58:35.163Z,2.40
2019-01-13T15:01:01.941Z,2.40
2019-01-13T15:03:28.752Z,2.40
2019-01-13T15:05:55.533Z,2.40
2019-01-13T15:08:22.344Z,2.40
2019-01-13T15:10:49.121Z,2.40
2019-01-13T15:13:15.936Z,2.40
2019-01-13T15:15:42.712Z,2.40
2019-01-13T15:18:09.720Z,2.50
2019-01-13T15:20:36.669Z,2.50
2019-01-13T15:23:03.660Z,2.50
2019-01-13T15:25:30.654Z,2.50
2019-01-13T15:27:57.761Z,2.60
2019-01-13T15:30:27.532Z,2.50
2019-01-13T15:32:54.424Z,2.60
2019-01-13T15:35:21.292Z,2.50
2019-01-13T15:37:48.107Z,2.60
2019-01-13T15:40:16.988Z,2.60
2019-01-13T15:42:43.904Z,2.60
2019-01-13T15:45:12.279Z,2.60
2019-01-13T15:47:39.088Z,2.70
2019-01-13T15:50:09.404Z,2.70
2019-01-13T15:52:36.228Z,2.60
2019-01-13T15:55:05.172Z,2.70
2019-01-13T15:57:32.097Z,2.70
2019-01-13T15:59:58.873Z,2.70
2019-01-13T16:02:25.685Z,2.70
2019-01-13T16:04:52.500Z,2.80
2019-01-13T16:07:19.282Z,2.70
2019-01-13T16:09:46.096Z,2.70
2019-01-13T16:12:12.868Z,2.70
2019-01-13T16:14:39.684Z,2.80
2019-01-13T16:17:06.461Z,2.80
2019-01-13T16:19:33.367Z,2.90
2019-01-13T16:22:00.175Z,3.00
2019-01-13T16:24:26.947Z,2.90
2019-01-13T16:26:53.764Z,2.90
2019-01-13T16:29:21.782Z,2.90
2019-01-13T16:31:48.901Z,2.90
2019-01-13T16:34:21.522Z,3.00
2019-01-13T16:36:44.325Z,3.10
2019-01-13T16:39:11.106Z,3.10
2019-01-13T16:41:37.912Z,3.10
2019-01-13T16:44:04.725Z,3.10
2019-01-13T16:46:31.500Z,3.20
2019-01-13T16:48:58.311Z,3.20
2019-01-13T16:51:27.436Z,3.20
2019-01-13T16:53:58.379Z,3.20
2019-01-13T16:56:29.855Z,3.20
2019-01-13T16:58:57.878Z,3.20
2019-01-13T17:01:25.499Z,3.20
2019-01-13T17:03:59.033Z,3.10
2019-01-13T17:06:26.874Z,3.20
2019-01-13T17:08:54.282Z,3.20
2019-01-13T17:11:21.838Z,3.20
2019-01-13T17:13:49.409Z,3.30
2019-01-13T17:16:17.115Z,3.40
2019-01-13T17:18:44.712Z,3.40
2019-01-13T17:21:12.647Z,3.40
2019-01-13T17:23:40.222Z,3.40
2019-01-13T17:26:09.367Z,3.40
2019-01-13T17:28:37.308Z,3.50
2019-01-13T17:31:04.757Z,3.50
2019-01-13T17:33:32.524Z,3.50
2019-01-13T17:36:00.367Z,3.50
2019-01-13T17:38:29.298Z,3.50
2019-01-13T17:41:01.263Z,3.50
2019-01-13T17:43:32.725Z,3.50
2019-01-13T17:46:11.911Z,3.40
2019-01-13T17:48:43.019Z,3.40
2019-01-13T17:51:13.479Z,3.40
2019-01-13T17:53:41.934Z,3.50
2019-01-13T17:56:10.845Z,3.50
2019-01-13T17:58:43.645Z,3.50
2019-01-13T18:01:15.357Z,3.50
2019-01-13T18:03:45.777Z,3.50
2019-01-13T18:06:23.225Z,3.50
2019-01-13T18:08:53.241Z,3.50
2019-01-13T18:11:22.575Z,3.50
2019-01-13T18:13:51.226Z,3.50
2019-01-13T18:16:22.546Z,3.60
2019-01-13T18:18:52.413Z,3.60
2019-01-13T18:21:25.679Z,3.60
2019-01-13T18:23:55.946Z,3.70
2019-01-13T18:26:33.405Z,3.60
2019-01-13T18:29:04.086Z,3.60
2019-01-13T18:31:35.381Z,3.70
2019-01-13T18:34:13.458Z,3.70
2019-01-13T18:36:41.281Z,3.80
2019-01-13T18:39:14.135Z,3.80
2019-01-13T18:41:48.372Z,3.70
2019-01-13T18:44:19.158Z,3.70
2019-01-13T18:46:49.482Z,3.70
2019-01-13T18:49:21.060Z,3.70
2019-01-13T18:51:55.541Z,3.70
2019-01-13T18:54:25.490Z,3.70
2019-01-13T18:59:50.393Z,3.70
2019-01-13T19:02:22.103Z,3.70
2019-01-13T19:04:57.290Z,3.70
2019-01-13T19:07:29.393Z,3.70
2019-01-13T19:10:10.069Z,3.70
2019-01-13T19:12:39.513Z,3.70
2019-01-13T19:15:12.190Z,3.70
2019-01-13T19:17:46.202Z,3.70
2019-01-13T19:20:18.600Z,3.70
2019-01-13T19:22:55.724Z,3.70
2019-01-13T19:25:31.044Z,3.70
2019-01-13T19:28:04.049Z,3.80
2019-01-13T19:30:45.910Z,3.80
2019-01-13T19:33:17.651Z,3.90
2019-01-13T19:35:51.381Z,3.90
2019-01-13T19:38:23.920Z,3.90
2019-01-13T19:40:54.712Z,3.90
2019-01-13T19:43:30.079Z,3.80
2019-01-13T19:45:59.152Z,3.80
2019-01-13T19:48:29.162Z,3.80
2019-01-13T19:51:00.493Z,3.90
2019-01-13T19:53:33.126Z,3.90
2019-01-13T19:56:04.737Z,3.90
2019-01-13T19:58:34.221Z,3.90
2019-01-13T20:01:01.069Z,3.90
2019-01-13T20:03:27.904Z,3.90
2019-01-13T20:05:54.727Z,4.00
2019-01-13T20:08:21.508Z,4.00
2019-01-13T20:10:48.296Z,4.00
2019-01-13T20:13:15.121Z,4.00
2019-01-13T20:15:41.896Z,4.00
2019-01-13T20:18:08.717Z,4.00
2019-01-13T20:20:35.591Z,4.10
2019-01-13T20:23:02.416Z,4.00
2019-01-13T20:25:29.449Z,4.00
2019-01-13T20:27:56.656Z,4.00
2019-01-13T20:30:27.052Z,4.00
2019-01-13T20:32:55.190Z,4.00
2019-01-13T20:35:21.982Z,4.00
2019-01-13T20:37:49.758Z,4.10
2019-01-13T20:40:17.052Z,4.10
2019-01-13T20:42:45.771Z,4.10
2019-01-13T20:45:22.088Z,4.10
2019-01-13T20:47:48.942Z,4.00
2019-01-13T20:50:15.848Z,4.00
2019-01-13T20:52:43.299Z,3.90
2019-01-13T20:55:13.624Z,3.90
2019-01-13T20:57:41.385Z,4.00
2019-01-13T21:00:11.898Z,4.10
2019-01-13T21:02:38.744Z,4.10
2019-01-13T21:05:07.095Z,4.10
2019-01-13T21:07:33.976Z,4.10
2019-01-13T21:10:03.754Z,4.10
2019-01-13T21:12:30.808Z,4.20
2019-01-13T21:14:57.698Z,4.20
2019-01-13T21:17:24.549Z,4.20
2019-01-13T21:19:53.873Z,4.30
2019-01-13T21:22:20.688Z,4.30
2019-01-13T21:24:47.515Z,4.30
2019-01-13T21:27:14.301Z,4.30
2019-01-13T21:29:41.125Z,4.30
2019-01-13T21:32:07.936Z,4.30
2019-01-13T21:34:34.704Z,4.30
2019-01-13T21:37:01.519Z,4.40
2019-01-13T21:39:28.337Z,4.40
2019-01-13T21:41:55.116Z,4.40
2019-01-13T21:44:21.949Z,4.40
2019-01-13T21:46:48.809Z,4.30
2019-01-13T21:49:15.648Z,4.40
2019-01-13T21:51:42.485Z,4.40
2019-01-13T21:54:11.030Z,4.40
2019-01-13T21:56:37.895Z,4.50
2019-01-13T21:59:04.712Z,4.50
2019-01-13T22:01:35.419Z,4.40
2019-01-13T22:04:00.108Z,4.50
2019-01-13T22:06:27.032Z,4.50
2019-01-13T22:08:56.179Z,4.50
2019-01-13T22:11:22.436Z,4.50
2019-01-13T22:13:49.336Z,4.60
2019-01-13T22:16:16.258Z,4.60
2019-01-13T22:18:43.114Z,4.50
2019-01-13T22:21:09.996Z,4.50
2019-01-13T22:23:36.889Z,4.50
2019-01-13T22:26:03.739Z,4.50
2019-01-13T22:28:30.598Z,4.50
2019-01-13T22:30:57.413Z,4.50
2019-01-13T22:33:24.193Z,4.50
2019-01-13T22:35:51.122Z,4.40
2019-01-13T22:38:17.895Z,4.50
2019-01-13T22:40:44.671Z,4.50
2019-01-13T22:43:11.483Z,4.50
2019-01-13T22:45:38.314Z,4.40
2019-01-13T22:48:05.089Z,4.30
2019-01-13T22:50:31.906Z,4.30
2019-01-13T22:52:58.713Z,4.40
2019-01-13T22:55:25.488Z,4.40
2019-01-13T22:57:52.303Z,4.40
2019-01-13T23:00:33.352Z,4.40
2019-01-13T23:03:00.277Z,4.40
2019-01-13T23:05:27.093Z,4.40
2019-01-13T23:07:53.879Z,4.40
2019-01-13T23:10:20.702Z,4.40
2019-01-13T23:12:47.523Z,4.40
2019-01-13T23:15:14.305Z,4.30
2019-01-13T23:17:41.119Z,4.30
2019-01-13T23:20:08.941Z,4.30
2019-01-13T23:22:35.717Z,4.30
2019-01-13T23:25:03.837Z,4.30
2019-01-13T23:27:30.653Z,4.30
2019-01-13T23:29:57.459Z,4.30
2019-01-13T23:32:24.290Z,4.30
2019-01-13T23:34:51.104Z,4.30
2019-01-13T23:37:17.886Z,4.30
2019-01-13T23:39:44.704Z,4.30
2019-01-13T23:42:11.525Z,4.20
2019-01-13T23:44:38.299Z,4.30
2019-01-13T23:47:05.080Z,4.20
2019-01-13T23:49:32.058Z,4.30
2019-01-13T23:51:58.821Z,4.20
2019-01-13T23:54:25.646Z,4.20
2019-01-13T23:56:52.447Z,4.20
2019-01-13T23:59:19.223Z,4.20
